sensor_id;sensor_type;location;lat;lon;timestamp;pressure;altitude;pressure_sealevel;temperature;humidity
21236;BME280;10775;42.678;26.324;2023-08-06T00:02:01;97423.19;;;28.82;60.26
21236;BME280;10775;42.678;26.324;2023-08-06T00:04:26;97419.59;;;28.67;60.73
21236;BME280;10775;42.678;26.324;2023-08-06T00:06:52;97428.63;;;28.66;61.03
21236;BME280;10775;42.678;26.324;2023-08-06T00:09:17;97409.59;;;28.44;61.49
21236;BME280;10775;42.678;26.324;2023-08-06T00:11:43;97416.22;;;28.65;61.00
21236;BME280;10775;42.678;26.324;2023-08-06T00:14:09;97409.28;;;28.31;61.56
21236;BME280;10775;42.678;26.324;2023-08-06T00:16:35;97412.69;;;28.08;62.73
21236;BME280;10775;42.678;26.324;2023-08-06T00:19:00;97410.91;;;27.92;63.36
21236;BME280;10775;42.678;26.324;2023-08-06T00:21:26;97414.53;;;28.16;62.65
21236;BME280;10775;42.678;26.324;2023-08-06T00:23:51;97411.19;;;28.06;62.91
21236;BME280;10775;42.678;26.324;2023-08-06T00:26:17;97402.00;;;28.48;61.34
21236;BME280;10775;42.678;26.324;2023-08-06T00:28:43;97415.59;;;28.54;61.19
21236;BME280;10775;42.678;26.324;2023-08-06T00:31:08;97412.44;;;28.51;61.19
21236;BME280;10775;42.678;26.324;2023-08-06T00:33:33;97404.03;;;28.54;61.22
21236;BME280;10775;42.678;26.324;2023-08-06T00:35:59;97401.84;;;28.49;61.21
21236;BME280;10775;42.678;26.324;2023-08-06T00:38:24;97392.59;;;28.52;61.02
21236;BME280;10775;42.678;26.324;2023-08-06T00:40:50;97390.38;;;28.55;60.82
21236;BME280;10775;42.678;26.324;2023-08-06T00:43:15;97387.13;;;28.68;60.46
21236;BME280;10775;42.678;26.324;2023-08-06T00:45:41;97389.50;;;28.71;60.18
21236;BME280;10775;42.678;26.324;2023-08-06T00:48:06;97390.06;;;28.58;60.71
21236;BME280;10775;42.678;26.324;2023-08-06T00:50:32;97388.38;;;28.57;60.97
21236;BME280;10775;42.678;26.324;2023-08-06T00:52:58;97381.53;;;28.47;61.12
21236;BME280;10775;42.678;26.324;2023-08-06T00:55:24;97380.72;;;28.38;61.32
21236;BME280;10775;42.678;26.324;2023-08-06T00:57:49;97384.91;;;28.40;61.34
21236;BME280;10775;42.678;26.324;2023-08-06T01:00:16;97380.69;;;28.46;61.16
21236;BME280;10775;42.678;26.324;2023-08-06T01:02:42;97366.72;;;28.43;61.16
21236;BME280;10775;42.678;26.324;2023-08-06T01:05:07;97370.59;;;28.40;61.25
21236;BME280;10775;42.678;26.324;2023-08-06T01:12:50;97372.50;;;28.31;61.42
21236;BME280;10775;42.678;26.324;2023-08-06T01:15:53;97371.66;;;28.31;61.47
21236;BME280;10775;42.678;26.324;2023-08-06T01:18:16;97368.59;;;28.42;61.09
21236;BME280;10775;42.678;26.324;2023-08-06T01:20:42;97364.22;;;28.49;60.87
21236;BME280;10775;42.678;26.324;2023-08-06T01:23:07;97356.84;;;28.35;61.19
21236;BME280;10775;42.678;26.324;2023-08-06T01:25:35;97365.00;;;28.18;62.00
21236;BME280;10775;42.678;26.324;2023-08-06T01:28:13;97363.66;;;28.14;61.93
21236;BME280;10775;42.678;26.324;2023-08-06T01:30:41;97359.63;;;28.18;61.87
21236;BME280;10775;42.678;26.324;2023-08-06T01:33:10;97360.28;;;28.21;61.80
21236;BME280;10775;42.678;26.324;2023-08-06T01:35:40;97363.28;;;28.26;61.70
21236;BME280;10775;42.678;26.324;2023-08-06T01:38:07;97363.97;;;28.28;61.53
21236;BME280;10775;42.678;26.324;2023-08-06T01:40:33;97360.78;;;28.24;61.54
21236;BME280;10775;42.678;26.324;2023-08-06T01:42:59;97357.41;;;28.30;61.35
21236;BME280;10775;42.678;26.324;2023-08-06T01:45:24;97339.38;;;28.00;62.42
21236;BME280;10775;42.678;26.324;2023-08-06T01:47:50;97345.16;;;28.28;61.61
21236;BME280;10775;42.678;26.324;2023-08-06T01:50:15;97347.13;;;28.34;61.32
21236;BME280;10775;42.678;26.324;2023-08-06T01:52:41;97347.50;;;28.31;61.50
21236;BME280;10775;42.678;26.324;2023-08-06T01:55:06;97339.91;;;28.34;61.21
21236;BME280;10775;42.678;26.324;2023-08-06T01:57:32;97338.72;;;28.37;61.05
21236;BME280;10775;42.678;26.324;2023-08-06T01:59:57;97335.41;;;28.27;61.50
21236;BME280;10775;42.678;26.324;2023-08-06T02:02:24;97341.44;;;28.29;61.28
21236;BME280;10775;42.678;26.324;2023-08-06T02:04:49;97335.72;;;28.32;61.34
21236;BME280;10775;42.678;26.324;2023-08-06T02:07:15;97328.50;;;28.32;61.25
21236;BME280;10775;42.678;26.324;2023-08-06T02:09:40;97323.31;;;28.31;61.19
21236;BME280;10775;42.678;26.324;2023-08-06T02:12:07;97327.34;;;28.27;61.36
21236;BME280;10775;42.678;26.324;2023-08-06T02:14:32;97337.09;;;28.28;61.31
21236;BME280;10775;42.678;26.324;2023-08-06T02:16:58;97338.09;;;28.27;61.33
21236;BME280;10775;42.678;26.324;2023-08-06T02:19:23;97321.84;;;28.20;61.58
21236;BME280;10775;42.678;26.324;2023-08-06T02:21:48;97327.00;;;28.30;61.27
21236;BME280;10775;42.678;26.324;2023-08-06T02:24:14;97335.72;;;28.32;61.18
21236;BME280;10775;42.678;26.324;2023-08-06T02:26:39;97337.06;;;28.36;60.94
21236;BME280;10775;42.678;26.324;2023-08-06T02:29:05;97329.56;;;28.23;61.21
21236;BME280;10775;42.678;26.324;2023-08-06T02:31:30;97331.09;;;28.17;61.43
21236;BME280;10775;42.678;26.324;2023-08-06T02:33:56;97323.69;;;28.19;61.23
21236;BME280;10775;42.678;26.324;2023-08-06T02:36:22;97320.16;;;28.19;61.20
21236;BME280;10775;42.678;26.324;2023-08-06T02:38:47;97313.97;;;28.18;61.39
21236;BME280;10775;42.678;26.324;2023-08-06T02:41:13;97315.50;;;28.13;61.51
21236;BME280;10775;42.678;26.324;2023-08-06T02:43:38;97312.31;;;28.09;61.57
21236;BME280;10775;42.678;26.324;2023-08-06T02:46:04;97314.16;;;28.09;61.65
21236;BME280;10775;42.678;26.324;2023-08-06T02:48:29;97316.69;;;28.10;61.70
21236;BME280;10775;42.678;26.324;2023-08-06T02:50:59;97313.16;;;28.10;61.58
21236;BME280;10775;42.678;26.324;2023-08-06T02:53:24;97314.34;;;27.99;61.90
21236;BME280;10775;42.678;26.324;2023-08-06T02:55:50;97311.03;;;27.97;62.16
21236;BME280;10775;42.678;26.324;2023-08-06T02:58:16;97318.03;;;28.06;61.84
21236;BME280;10775;42.678;26.324;2023-08-06T03:00:42;97306.00;;;27.94;61.96
21236;BME280;10775;42.678;26.324;2023-08-06T03:03:08;97295.44;;;27.92;62.21
21236;BME280;10775;42.678;26.324;2023-08-06T03:05:33;97298.91;;;28.01;61.77
21236;BME280;10775;42.678;26.324;2023-08-06T03:07:59;97292.56;;;27.94;61.94
21236;BME280;10775;42.678;26.324;2023-08-06T03:10:24;97289.88;;;27.94;62.09
21236;BME280;10775;42.678;26.324;2023-08-06T03:12:50;97293.03;;;28.06;61.67
21236;BME280;10775;42.678;26.324;2023-08-06T03:15:15;97286.16;;;28.03;61.59
21236;BME280;10775;42.678;26.324;2023-08-06T03:17:41;97281.66;;;27.95;62.04
21236;BME280;10775;42.678;26.324;2023-08-06T03:20:06;97284.03;;;27.90;62.02
21236;BME280;10775;42.678;26.324;2023-08-06T03:22:32;97281.19;;;27.75;62.50
21236;BME280;10775;42.678;26.324;2023-08-06T03:24:57;97279.25;;;27.53;63.37
21236;BME280;10775;42.678;26.324;2023-08-06T03:27:23;97284.91;;;27.74;62.47
21236;BME280;10775;42.678;26.324;2023-08-06T03:29:52;97283.72;;;27.77;62.60
21236;BME280;10775;42.678;26.324;2023-08-06T03:32:17;97287.41;;;27.84;62.04
21236;BME280;10775;42.678;26.324;2023-08-06T03:34:42;97286.56;;;27.84;62.42
21236;BME280;10775;42.678;26.324;2023-08-06T03:37:08;97289.56;;;27.89;61.96
21236;BME280;10775;42.678;26.324;2023-08-06T03:39:33;97283.25;;;27.82;61.91
21236;BME280;10775;42.678;26.324;2023-08-06T03:41:59;97280.56;;;27.82;62.13
21236;BME280;10775;42.678;26.324;2023-08-06T03:44:24;97289.75;;;27.79;62.19
21236;BME280;10775;42.678;26.324;2023-08-06T03:46:50;97291.56;;;27.95;61.85
21236;BME280;10775;42.678;26.324;2023-08-06T03:49:15;97286.56;;;27.84;61.98
21236;BME280;10775;42.678;26.324;2023-08-06T03:51:41;97291.44;;;27.72;62.42
21236;BME280;10775;42.678;26.324;2023-08-06T03:54:06;97293.28;;;27.80;62.21
21236;BME280;10775;42.678;26.324;2023-08-06T03:56:31;97289.91;;;27.78;62.33
21236;BME280;10775;42.678;26.324;2023-08-06T03:58:57;97288.56;;;27.90;61.87
21236;BME280;10775;42.678;26.324;2023-08-06T04:01:22;97277.50;;;27.85;61.99
21236;BME280;10775;42.678;26.324;2023-08-06T04:03:48;97287.59;;;27.83;61.98
21236;BME280;10775;42.678;26.324;2023-08-06T04:06:13;97286.03;;;27.88;62.07
21236;BME280;10775;42.678;26.324;2023-08-06T04:08:39;97277.78;;;27.98;61.46
21236;BME280;10775;42.678;26.324;2023-08-06T04:11:04;97264.84;;;28.02;61.47
21236;BME280;10775;42.678;26.324;2023-08-06T04:13:30;97267.59;;;27.77;61.76
21236;BME280;10775;42.678;26.324;2023-08-06T04:16:00;97264.25;;;27.83;61.88
21236;BME280;10775;42.678;26.324;2023-08-06T04:18:26;97267.41;;;27.95;61.36
21236;BME280;10775;42.678;26.324;2023-08-06T04:20:51;97267.22;;;27.96;61.42
21236;BME280;10775;42.678;26.324;2023-08-06T04:23:17;97261.19;;;27.94;61.37
21236;BME280;10775;42.678;26.324;2023-08-06T04:25:43;97256.81;;;27.93;61.58
21236;BME280;10775;42.678;26.324;2023-08-06T04:28:08;97259.47;;;28.02;61.12
21236;BME280;10775;42.678;26.324;2023-08-06T04:30:34;97257.09;;;28.07;60.89
21236;BME280;10775;42.678;26.324;2023-08-06T04:32:59;97247.22;;;28.07;60.83
21236;BME280;10775;42.678;26.324;2023-08-06T04:35:25;97267.38;;;28.03;61.02
21236;BME280;10775;42.678;26.324;2023-08-06T04:37:51;97266.84;;;28.08;60.98
21236;BME280;10775;42.678;26.324;2023-08-06T04:40:16;97268.72;;;27.99;61.02
21236;BME280;10775;42.678;26.324;2023-08-06T04:42:42;97264.75;;;27.87;61.41
21236;BME280;10775;42.678;26.324;2023-08-06T04:45:07;97274.31;;;27.81;61.66
21236;BME280;10775;42.678;26.324;2023-08-06T04:47:33;97274.47;;;27.88;61.62
21236;BME280;10775;42.678;26.324;2023-08-06T04:49:58;97263.53;;;27.98;61.43
21236;BME280;10775;42.678;26.324;2023-08-06T04:52:24;97269.38;;;28.01;61.07
21236;BME280;10775;42.678;26.324;2023-08-06T04:54:52;97268.59;;;27.92;61.46
21236;BME280;10775;42.678;26.324;2023-08-06T04:57:18;97260.75;;;27.83;61.70
21236;BME280;10775;42.678;26.324;2023-08-06T04:59:43;97267.09;;;27.90;61.73
21236;BME280;10775;42.678;26.324;2023-08-06T05:02:09;97263.75;;;27.88;61.21
21236;BME280;10775;42.678;26.324;2023-08-06T05:04:34;97257.19;;;27.90;61.58
21236;BME280;10775;42.678;26.324;2023-08-06T05:07:00;97244.34;;;28.09;60.42
21236;BME280;10775;42.678;26.324;2023-08-06T05:09:25;97245.97;;;28.18;60.46
21236;BME280;10775;42.678;26.324;2023-08-06T05:11:51;97253.00;;;28.19;60.31
21236;BME280;10775;42.678;26.324;2023-08-06T05:14:16;97253.84;;;28.19;60.19
21236;BME280;10775;42.678;26.324;2023-08-06T05:16:42;97248.78;;;28.25;60.20
21236;BME280;10775;42.678;26.324;2023-08-06T05:19:07;97253.31;;;28.24;60.24
21236;BME280;10775;42.678;26.324;2023-08-06T05:21:32;97253.25;;;28.32;59.81
21236;BME280;10775;42.678;26.324;2023-08-06T05:23:58;97254.44;;;28.38;59.75
21236;BME280;10775;42.678;26.324;2023-08-06T05:26:23;97254.81;;;28.27;59.85
21236;BME280;10775;42.678;26.324;2023-08-06T05:28:49;97257.13;;;28.30;59.78
21236;BME280;10775;42.678;26.324;2023-08-06T05:31:14;97262.66;;;28.05;60.48
21236;BME280;10775;42.678;26.324;2023-08-06T05:33:40;97246.81;;;28.18;60.22
21236;BME280;10775;42.678;26.324;2023-08-06T05:36:05;97247.59;;;28.27;59.92
21236;BME280;10775;42.678;26.324;2023-08-06T05:38:31;97244.69;;;28.37;59.57
21236;BME280;10775;42.678;26.324;2023-08-06T05:40:56;97248.75;;;28.33;59.65
21236;BME280;10775;42.678;26.324;2023-08-06T05:43:22;97241.88;;;27.43;62.99
21236;BME280;10775;42.678;26.324;2023-08-06T05:45:50;97237.91;;;27.87;61.78
21236;BME280;10775;42.678;26.324;2023-08-06T05:48:16;97230.38;;;28.13;60.57
21236;BME280;10775;42.678;26.324;2023-08-06T05:50:42;97231.63;;;27.47;63.07
21236;BME280;10775;42.678;26.324;2023-08-06T05:53:07;97232.59;;;28.10;60.47
21236;BME280;10775;42.678;26.324;2023-08-06T05:55:33;97230.38;;;28.13;60.54
21236;BME280;10775;42.678;26.324;2023-08-06T05:57:59;97235.13;;;28.34;59.25
21236;BME280;10775;42.678;26.324;2023-08-06T06:00:24;97239.13;;;28.38;59.56
21236;BME280;10775;42.678;26.324;2023-08-06T06:02:50;97242.06;;;28.29;59.90
21236;BME280;10775;42.678;26.324;2023-08-06T06:05:15;97244.97;;;28.42;59.58
21236;BME280;10775;42.678;26.324;2023-08-06T06:07:41;97238.78;;;28.42;59.43
21236;BME280;10775;42.678;26.324;2023-08-06T06:10:07;97233.56;;;28.40;59.56
21236;BME280;10775;42.678;26.324;2023-08-06T06:12:32;97231.38;;;28.44;59.30
21236;BME280;10775;42.678;26.324;2023-08-06T06:14:58;97227.84;;;28.51;58.98
21236;BME280;10775;42.678;26.324;2023-08-06T06:17:23;97227.53;;;28.46;59.14
21236;BME280;10775;42.678;26.324;2023-08-06T06:19:49;97216.59;;;28.16;65.44
21236;BME280;10775;42.678;26.324;2023-08-06T06:22:14;97224.13;;;27.90;65.01
21236;BME280;10775;42.678;26.324;2023-08-06T06:24:40;97227.81;;;27.81;62.34
21236;BME280;10775;42.678;26.324;2023-08-06T06:27:05;97227.81;;;27.81;62.78
21236;BME280;10775;42.678;26.324;2023-08-06T06:29:31;97232.03;;;27.19;65.43
21236;BME280;10775;42.678;26.324;2023-08-06T06:31:56;97220.25;;;28.24;61.18
21236;BME280;10775;42.678;26.324;2023-08-06T06:34:22;97215.06;;;29.29;57.94
21236;BME280;10775;42.678;26.324;2023-08-06T06:36:47;97221.50;;;29.87;55.48
21236;BME280;10775;42.678;26.324;2023-08-06T06:39:13;97221.31;;;29.89;55.14
21236;BME280;10775;42.678;26.324;2023-08-06T06:41:38;97216.19;;;29.35;56.67
21236;BME280;10775;42.678;26.324;2023-08-06T06:44:05;97215.31;;;29.04;57.63
21236;BME280;10775;42.678;26.324;2023-08-06T06:46:31;97217.94;;;29.42;56.64
21236;BME280;10775;42.678;26.324;2023-08-06T06:48:56;97226.22;;;29.03;58.08
21236;BME280;10775;42.678;26.324;2023-08-06T06:51:22;97225.47;;;29.32;57.21
21236;BME280;10775;42.678;26.324;2023-08-06T06:53:47;97242.47;;;29.33;61.92
21236;BME280;10775;42.678;26.324;2023-08-06T06:56:13;97233.88;;;29.14;57.76
21236;BME280;10775;42.678;26.324;2023-08-06T06:58:38;97244.31;;;28.94;58.76
21236;BME280;10775;42.678;26.324;2023-08-06T07:01:06;97241.91;;;31.12;58.34
21236;BME280;10775;42.678;26.324;2023-08-06T07:03:31;97253.44;;;30.42;54.15
21236;BME280;10775;42.678;26.324;2023-08-06T07:05:58;97247.47;;;30.10;54.53
21236;BME280;10775;42.678;26.324;2023-08-06T07:08:26;97247.78;;;29.85;55.59
21236;BME280;10775;42.678;26.324;2023-08-06T07:10:59;97243.56;;;30.49;58.54
21236;BME280;10775;42.678;26.324;2023-08-06T07:13:26;97228.31;;;32.45;49.32
21236;BME280;10775;42.678;26.324;2023-08-06T07:15:51;97232.84;;;32.24;49.52
21236;BME280;10775;42.678;26.324;2023-08-06T07:18:17;97226.16;;;31.44;51.43
21236;BME280;10775;42.678;26.324;2023-08-06T07:20:48;97227.75;;;31.67;51.09
21236;BME280;10775;42.678;26.324;2023-08-06T07:23:13;97243.81;;;32.78;49.22
21236;BME280;10775;42.678;26.324;2023-08-06T07:25:39;97238.28;;;32.38;48.69
21236;BME280;10775;42.678;26.324;2023-08-06T07:28:04;97236.97;;;31.44;54.76
21236;BME280;10775;42.678;26.324;2023-08-06T07:30:30;97238.00;;;30.72;52.77
21236;BME280;10775;42.678;26.324;2023-08-06T07:32:56;97246.56;;;30.39;54.87
21236;BME280;10775;42.678;26.324;2023-08-06T07:35:21;97251.63;;;30.64;53.92
21236;BME280;10775;42.678;26.324;2023-08-06T07:37:46;97248.66;;;30.22;60.72
21236;BME280;10775;42.678;26.324;2023-08-06T07:40:12;97245.56;;;30.62;55.73
21236;BME280;10775;42.678;26.324;2023-08-06T07:42:37;97235.13;;;30.95;53.33
21236;BME280;10775;42.678;26.324;2023-08-06T07:45:03;97231.63;;;31.01;56.52
21236;BME280;10775;42.678;26.324;2023-08-06T07:47:29;97236.84;;;30.23;55.05
21236;BME280;10775;42.678;26.324;2023-08-06T07:49:54;97234.66;;;30.70;53.26
21236;BME280;10775;42.678;26.324;2023-08-06T07:52:20;97235.34;;;30.36;54.71
21236;BME280;10775;42.678;26.324;2023-08-06T07:54:45;97246.94;;;30.51;53.96
21236;BME280;10775;42.678;26.324;2023-08-06T07:57:11;97248.72;;;30.65;53.22
21236;BME280;10775;42.678;26.324;2023-08-06T07:59:36;97257.75;;;30.58;57.86
21236;BME280;10775;42.678;26.324;2023-08-06T08:02:02;97260.53;;;30.64;53.74
21236;BME280;10775;42.678;26.324;2023-08-06T08:04:27;97255.41;;;30.69;53.79
21236;BME280;10775;42.678;26.324;2023-08-06T08:06:53;97258.09;;;29.82;62.08
21236;BME280;10775;42.678;26.324;2023-08-06T08:09:18;97267.41;;;29.41;60.30
21236;BME280;10775;42.678;26.324;2023-08-06T08:11:43;97269.88;;;29.96;56.36
21236;BME280;10775;42.678;26.324;2023-08-06T08:14:09;97261.94;;;30.60;54.22
21236;BME280;10775;42.678;26.324;2023-08-06T08:16:34;97258.78;;;29.31;66.39
21236;BME280;10775;42.678;26.324;2023-08-06T08:19:00;97248.16;;;29.82;58.14
21236;BME280;10775;42.678;26.324;2023-08-06T08:21:25;97242.22;;;30.38;55.14
21236;BME280;10775;42.678;26.324;2023-08-06T08:23:51;97233.75;;;30.63;53.87
21236;BME280;10775;42.678;26.324;2023-08-06T08:26:16;97219.91;;;29.93;56.75
21236;BME280;10775;42.678;26.324;2023-08-06T08:28:42;97227.31;;;30.06;60.99
21236;BME280;10775;42.678;26.324;2023-08-06T08:31:08;97219.59;;;30.03;60.04
21236;BME280;10775;42.678;26.324;2023-08-06T08:33:34;97208.16;;;30.95;53.98
21236;BME280;10775;42.678;26.324;2023-08-06T08:36:00;97220.19;;;32.38;49.85
21236;BME280;10775;42.678;26.324;2023-08-06T08:38:25;97222.13;;;32.71;48.21
21236;BME280;10775;42.678;26.324;2023-08-06T08:40:52;97217.47;;;31.90;49.88
21236;BME280;10775;42.678;26.324;2023-08-06T08:43:20;97198.66;;;30.99;58.44
21236;BME280;10775;42.678;26.324;2023-08-06T08:45:50;97182.41;;;30.92;58.74
21236;BME280;10775;42.678;26.324;2023-08-06T08:48:16;97169.06;;;29.54;63.09
21236;BME280;10775;42.678;26.324;2023-08-06T08:50:44;97158.53;;;29.88;56.38
21236;BME280;10775;42.678;26.324;2023-08-06T08:53:11;97121.19;;;29.85;55.97
21236;BME280;10775;42.678;26.324;2023-08-06T08:55:38;97123.19;;;29.02;59.70
21236;BME280;10775;42.678;26.324;2023-08-06T08:58:04;97177.66;;;29.19;58.63
21236;BME280;10775;42.678;26.324;2023-08-06T09:00:30;97274.69;;;29.56;57.03
21236;BME280;10775;42.678;26.324;2023-08-06T09:02:58;97261.81;;;28.36;60.59
21236;BME280;10775;42.678;26.324;2023-08-06T09:05:28;97359.44;;;27.31;64.62
21236;BME280;10775;42.678;26.324;2023-08-06T09:07:55;97342.94;;;24.68;75.02
21236;BME280;10775;42.678;26.324;2023-08-06T09:10:23;97290.81;;;23.44;83.36
21236;BME280;10775;42.678;26.324;2023-08-06T09:12:51;97255.56;;;21.02;100.00
21236;BME280;10775;42.678;26.324;2023-08-06T09:15:18;97224.16;;;20.87;100.00
21236;BME280;10775;42.678;26.324;2023-08-06T09:17:43;97237.56;;;20.53;100.00
21236;BME280;10775;42.678;26.324;2023-08-06T09:20:11;97235.59;;;20.34;100.00
21236;BME280;10775;42.678;26.324;2023-08-06T09:22:36;97225.88;;;20.23;100.00
21236;BME280;10775;42.678;26.324;2023-08-06T09:25:02;97213.94;;;20.61;100.00
21236;BME280;10775;42.678;26.324;2023-08-06T09:27:29;97190.53;;;20.97;100.00
21236;BME280;10775;42.678;26.324;2023-08-06T09:29:55;97184.91;;;21.21;100.00
21236;BME280;10775;42.678;26.324;2023-08-06T09:32:20;97165.53;;;21.30;100.00
21236;BME280;10775;42.678;26.324;2023-08-06T09:34:46;97149.53;;;21.51;100.00
21236;BME280;10775;42.678;26.324;2023-08-06T09:37:11;97159.00;;;21.44;100.00
21236;BME280;10775;42.678;26.324;2023-08-06T09:39:39;97179.09;;;21.67;100.00
21236;BME280;10775;42.678;26.324;2023-08-06T09:42:05;97171.22;;;21.56;100.00
21236;BME280;10775;42.678;26.324;2023-08-06T09:44:32;97166.97;;;22.72;100.00
21236;BME280;10775;42.678;26.324;2023-08-06T09:47:00;97159.25;;;24.26;94.79
21236;BME280;10775;42.678;26.324;2023-08-06T09:51:57;97137.72;;;25.16;85.89
21236;BME280;10775;42.678;26.324;2023-08-06T09:54:27;97119.28;;;23.99;96.84
21236;BME280;10775;42.678;26.324;2023-08-06T09:56:55;97139.03;;;23.33;100.00
21236;BME280;10775;42.678;26.324;2023-08-06T09:59:24;97129.41;;;23.50;100.00
21236;BME280;10775;42.678;26.324;2023-08-06T10:01:51;97171.94;;;23.14;100.00
21236;BME280;10775;42.678;26.324;2023-08-06T10:04:16;97181.66;;;24.34;92.41
21236;BME280;10775;42.678;26.324;2023-08-06T10:06:46;97185.50;;;23.58;100.00
21236;BME280;10775;42.678;26.324;2023-08-06T10:09:11;97222.00;;;24.13;92.88
21236;BME280;10775;42.678;26.324;2023-08-06T10:11:38;97218.97;;;24.79;87.22
21236;BME280;10775;42.678;26.324;2023-08-06T10:14:09;97153.94;;;24.70;94.28
21236;BME280;10775;42.678;26.324;2023-08-06T10:16:37;97141.66;;;23.70;100.00
21236;BME280;10775;42.678;26.324;2023-08-06T10:19:04;97182.22;;;24.55;91.00
21236;BME280;10775;42.678;26.324;2023-08-06T10:21:31;97196.75;;;25.57;83.82
21236;BME280;10775;42.678;26.324;2023-08-06T10:23:57;97206.28;;;25.59;82.27
21236;BME280;10775;42.678;26.324;2023-08-06T10:26:29;97230.00;;;25.89;80.68
21236;BME280;10775;42.678;26.324;2023-08-06T10:28:55;97244.91;;;25.91;80.07
21236;BME280;10775;42.678;26.324;2023-08-06T10:31:53;97237.78;;;25.82;79.99
21236;BME280;10775;42.678;26.324;2023-08-06T10:34:19;97253.84;;;25.82;80.31
21236;BME280;10775;42.678;26.324;2023-08-06T10:36:44;97244.09;;;25.99;79.34
21236;BME280;10775;42.678;26.324;2023-08-06T10:39:13;97219.84;;;25.32;93.04
21236;BME280;10775;42.678;26.324;2023-08-06T10:41:42;97197.22;;;24.56;88.30
21236;BME280;10775;42.678;26.324;2023-08-06T10:44:09;97202.31;;;25.11;85.05
21236;BME280;10775;42.678;26.324;2023-08-06T10:46:35;97204.25;;;25.88;80.87
21236;BME280;10775;42.678;26.324;2023-08-06T10:49:01;97218.91;;;26.42;77.96
21236;BME280;10775;42.678;26.324;2023-08-06T10:51:26;97234.03;;;26.76;76.33
21236;BME280;10775;42.678;26.324;2023-08-06T10:53:52;97241.41;;;26.91;75.33
21236;BME280;10775;42.678;26.324;2023-08-06T10:56:20;97254.16;;;27.05;74.42
21236;BME280;10775;42.678;26.324;2023-08-06T10:58:50;97264.88;;;27.21;73.41
21236;BME280;10775;42.678;26.324;2023-08-06T11:01:16;97274.22;;;27.17;73.10
21236;BME280;10775;42.678;26.324;2023-08-06T11:03:44;97280.84;;;26.31;81.70
21236;BME280;10775;42.678;26.324;2023-08-06T11:06:10;97276.97;;;25.83;81.32
21236;BME280;10775;42.678;26.324;2023-08-06T11:08:37;97276.56;;;26.04;80.24
21236;BME280;10775;42.678;26.324;2023-08-06T11:11:16;97257.41;;;25.04;86.09
21236;BME280;10775;42.678;26.324;2023-08-06T11:13:43;97264.44;;;26.26;78.64
21236;BME280;10775;42.678;26.324;2023-08-06T11:16:10;97266.03;;;26.78;76.39
21236;BME280;10775;42.678;26.324;2023-08-06T11:18:35;97258.25;;;26.26;81.25
21236;BME280;10775;42.678;26.324;2023-08-06T11:21:01;97253.13;;;25.11;85.18
21236;BME280;10775;42.678;26.324;2023-08-06T11:23:28;97257.31;;;26.00;80.31
21236;BME280;10775;42.678;26.324;2023-08-06T11:25:55;97270.28;;;25.53;83.55
21236;BME280;10775;42.678;26.324;2023-08-06T11:28:20;97276.34;;;25.11;85.10
21236;BME280;10775;42.678;26.324;2023-08-06T11:30:47;97282.66;;;25.54;82.00
21236;BME280;10775;42.678;26.324;2023-08-06T11:33:13;97291.00;;;26.70;77.30
21236;BME280;10775;42.678;26.324;2023-08-06T11:35:38;97294.38;;;27.29;74.21
21236;BME280;10775;42.678;26.324;2023-08-06T11:38:05;97283.53;;;27.79;71.60
21236;BME280;10775;42.678;26.324;2023-08-06T11:40:32;97280.13;;;26.96;74.48
21236;BME280;10775;42.678;26.324;2023-08-06T11:42:57;97280.78;;;26.15;79.02
21236;BME280;10775;42.678;26.324;2023-08-06T11:45:26;97282.94;;;26.03;78.94
21236;BME280;10775;42.678;26.324;2023-08-06T11:47:52;97268.75;;;26.19;78.04
21236;BME280;10775;42.678;26.324;2023-08-06T11:50:27;97268.75;;;25.50;81.30
21236;BME280;10775;42.678;26.324;2023-08-06T11:53:01;97263.38;;;26.11;79.96
21236;BME280;10775;42.678;26.324;2023-08-06T11:55:28;97293.41;;;25.88;86.35
21236;BME280;10775;42.678;26.324;2023-08-06T11:57:54;97317.06;;;26.01;80.91
21236;BME280;10775;42.678;26.324;2023-08-06T12:00:23;97328.16;;;26.65;76.62
21236;BME280;10775;42.678;26.324;2023-08-06T12:02:49;97348.78;;;26.64;76.81
21236;BME280;10775;42.678;26.324;2023-08-06T12:05:16;97348.53;;;26.07;80.09
21236;BME280;10775;42.678;26.324;2023-08-06T12:07:46;97347.41;;;25.57;80.53
21236;BME280;10775;42.678;26.324;2023-08-06T12:10:13;97349.38;;;25.29;83.90
21236;BME280;10775;42.678;26.324;2023-08-06T12:12:39;97319.22;;;24.10;97.12
21236;BME280;10775;42.678;26.324;2023-08-06T12:15:06;97322.28;;;24.15;96.10
21236;BME280;10775;42.678;26.324;2023-08-06T12:17:32;97318.75;;;25.24;87.33
21236;BME280;10775;42.678;26.324;2023-08-06T12:19:57;97303.88;;;23.84;100.00
21236;BME280;10775;42.678;26.324;2023-08-06T12:22:23;97286.72;;;23.97;100.00
21236;BME280;10775;42.678;26.324;2023-08-06T12:24:48;97271.66;;;24.23;100.00
21236;BME280;10775;42.678;26.324;2023-08-06T12:27:14;97265.25;;;24.16;96.87
21236;BME280;10775;42.678;26.324;2023-08-06T12:29:45;97258.34;;;25.39;86.43
21236;BME280;10775;42.678;26.324;2023-08-06T12:32:11;97254.38;;;24.81;91.02
21236;BME280;10775;42.678;26.324;2023-08-06T12:34:38;97253.44;;;24.19;97.09
21236;BME280;10775;42.678;26.324;2023-08-06T12:37:04;97254.81;;;25.65;87.34
21236;BME280;10775;42.678;26.324;2023-08-06T12:39:30;97277.47;;;26.21;82.70
21236;BME280;10775;42.678;26.324;2023-08-06T12:41:56;97271.41;;;25.76;89.88
21236;BME280;10775;42.678;26.324;2023-08-06T12:44:23;97263.28;;;25.86;87.60
21236;BME280;10775;42.678;26.324;2023-08-06T12:46:52;97251.91;;;25.58;86.58
21236;BME280;10775;42.678;26.324;2023-08-06T12:49:18;97242.03;;;25.85;87.52
21236;BME280;10775;42.678;26.324;2023-08-06T12:51:49;97242.03;;;26.43;81.69
21236;BME280;10775;42.678;26.324;2023-08-06T12:54:16;97253.41;;;25.87;82.70